Time;durP1;ratioP1;P1;durP2;ratioP2;P2;SDS_P1;SDS_P2;PMS_P1;PMS_P2;Temp;Humidity;BMP_temperature;BMP_pressure;BME280_temperature;BME280_humidity;BME280_pressure;Samples;Min_cycle;Max_cycle;Signal;HPM_P1;HPM_P2
2023/06/19 00:00:58;;;;;;;2.30;2.10;;;24.50;1.00;;;;;;5074218;28;20431;-60
2023/06/19 00:03:25;;;;;;;3.20;2.00;;;24.50;1.00;;;;;;5075139;28;20485;-60
2023/06/19 00:05:52;;;;;;;2.50;1.90;;;24.60;1.00;;;;;;5075023;28;20480;-60
2023/06/19 00:08:20;;;;;;;2.20;1.77;;;24.60;1.00;;;;;;5075328;28;20568;-59
2023/06/19 00:10:49;;;;;;;2.10;1.90;;;24.60;1.00;;;;;;5074129;28;20863;-60
2023/06/19 00:13:16;;;;;;;2.40;1.80;;;24.60;1.00;;;;;;5074431;28;20501;-59
2023/06/19 00:15:43;;;;;;;2.20;1.70;;;24.50;1.00;;;;;;5074175;28;20424;-60
2023/06/19 00:18:10;;;;;;;1.77;1.60;;;24.50;1.00;;;;;;5074514;28;20450;-59
2023/06/19 00:20:39;;;;;;;2.10;1.90;;;24.50;1.00;;;;;;5074719;28;20928;-60
2023/06/19 00:23:10;;;;;;;2.50;1.73;;;24.50;1.00;;;;;;5074417;28;20911;-61
2023/06/19 00:25:38;;;;;;;2.97;1.90;;;24.40;1.00;;;;;;5074395;28;20882;-60
2023/06/19 00:28:13;;;;;;;2.25;1.85;;;24.40;1.00;;;;;;5073956;28;20496;-61
2023/06/19 00:30:40;;;;;;;2.00;1.75;;;24.40;1.00;;;;;;5074004;28;20423;-60
2023/06/19 00:33:09;;;;;;;2.50;1.80;;;24.30;1.00;;;;;;5072822;28;20466;-61
2023/06/19 00:35:35;;;;;;;2.15;1.80;;;24.30;1.00;;;;;;5073590;28;20458;-61
2023/06/19 00:38:03;;;;;;;2.30;1.70;;;24.20;1.00;;;;;;5073224;28;20496;-60
2023/06/19 00:40:31;;;;;;;2.40;1.70;;;24.20;1.00;;;;;;5073542;28;20434;-60
2023/06/19 00:43:00;;;;;;;1.90;1.65;;;24.20;1.00;;;;;;5073888;28;20473;-61
2023/06/19 00:45:28;;;;;;;2.10;1.90;;;24.10;1.00;;;;;;5073110;28;20814;-61
2023/06/19 00:47:56;;;;;;;2.60;2.17;;;24.10;1.00;;;;;;5074009;28;20477;-59
2023/06/19 00:50:23;;;;;;;2.30;2.00;;;24.10;1.00;;;;;;5079163;28;20480;-60
2023/06/19 00:52:50;;;;;;;1.88;1.70;;;24.00;1.00;;;;;;5078039;28;20435;-60
2023/06/19 00:55:18;;;;;;;2.10;1.80;;;24.10;1.00;;;;;;5078575;28;20431;-59
2023/06/19 00:57:46;;;;;;;1.90;1.70;;;24.10;1.00;;;;;;5078626;28;20504;-61
2023/06/19 01:00:15;;;;;;;3.10;1.60;;;24.10;1.00;;;;;;5078367;28;20446;-61
2023/06/19 01:02:42;;;;;;;1.80;1.60;;;24.10;1.00;;;;;;5077665;28;20717;-61
2023/06/19 01:05:09;;;;;;;2.22;1.70;;;24.10;1.00;;;;;;5076801;28;20427;-61
2023/06/19 01:07:44;;;;;;;1.80;1.50;;;24.10;1.00;;;;;;5078325;28;20481;-60
2023/06/19 01:10:15;;;;;;;4.30;1.80;;;24.20;1.00;;;;;;5077298;28;20708;-60
2023/06/19 01:12:52;;;;;;;1.95;1.60;;;24.20;1.00;;;;;;5076686;28;20533;-60
2023/06/19 01:15:23;;;;;;;2.20;1.60;;;24.20;1.00;;;;;;5075717;28;20769;-61
2023/06/19 01:17:50;;;;;;;1.60;1.50;;;24.20;1.00;;;;;;5075463;28;20451;-60
2023/06/19 01:20:17;;;;;;;2.60;1.60;;;24.30;1.00;;;;;;5075274;28;20463;-60
2023/06/19 01:22:46;;;;;;;1.65;1.50;;;24.40;1.00;;;;;;5076003;28;20932;-60
2023/06/19 01:25:13;;;;;;;1.40;1.20;;;24.50;1.00;;;;;;5077094;28;20446;-60
2023/06/19 01:27:42;;;;;;;1.90;1.30;;;24.60;1.00;;;;;;5077816;28;20477;-60
2023/06/19 01:30:12;;;;;;;2.10;1.20;;;24.60;1.00;;;;;;5077431;28;20518;-59
2023/06/19 01:32:49;;;;;;;1.80;1.30;;;24.60;1.00;;;;;;5076108;28;20431;-61
2023/06/19 01:35:18;;;;;;;2.33;1.30;;;24.60;1.00;;;;;;5075675;28;20455;-61
2023/06/19 01:37:48;;;;;;;1.92;1.20;;;24.60;1.00;;;;;;5073214;28;20944;-61
2023/06/19 01:40:16;;;;;;;1.30;1.10;;;24.40;1.00;;;;;;5073617;28;20489;-61
2023/06/19 01:42:44;;;;;;;1.23;1.10;;;24.30;1.00;;;;;;5073503;28;20866;-61
2023/06/19 01:45:12;;;;;;;1.40;1.10;;;24.20;1.00;;;;;;5073896;28;20420;-60
2023/06/19 01:47:39;;;;;;;2.03;1.10;;;24.20;1.00;;;;;;5075044;28;20415;-61
2023/06/19 01:50:07;;;;;;;2.60;1.30;;;24.20;1.00;;;;;;5076273;28;20532;-61
2023/06/19 01:52:34;;;;;;;2.30;1.30;;;24.20;1.00;;;;;;5076800;28;20439;-61
2023/06/19 01:55:03;;;;;;;2.20;1.20;;;24.10;1.00;;;;;;5077411;28;20851;-61
2023/06/19 01:57:30;;;;;;;1.30;1.10;;;24.20;1.00;;;;;;5076962;28;20427;-59
2023/06/19 01:59:57;;;;;;;1.30;1.10;;;24.10;1.00;;;;;;5076875;28;20427;-61
2023/06/19 02:02:24;;;;;;;1.80;1.20;;;24.10;1.00;;;;;;5076776;28;20739;-61
2023/06/19 02:04:51;;;;;;;1.50;1.10;;;24.10;1.00;;;;;;5077229;28;20455;-60
2023/06/19 02:07:18;;;;;;;1.80;1.10;;;24.00;1.00;;;;;;5077656;28;20489;-61
2023/06/19 02:09:45;;;;;;;1.23;1.10;;;23.90;1.00;;;;;;5076953;28;20493;-60
2023/06/19 02:12:13;;;;;;;1.20;1.00;;;23.90;1.00;;;;;;5076543;28;20432;-60
2023/06/19 02:14:40;;;;;;;2.00;0.90;;;23.90;1.00;;;;;;5076804;28;20423;-61
2023/06/19 02:17:07;;;;;;;1.30;1.00;;;23.90;1.00;;;;;;5077020;28;20797;-60
2023/06/19 02:19:34;;;;;;;1.70;1.20;;;24.00;1.00;;;;;;5076833;28;20473;-60
2023/06/19 02:22:01;;;;;;;1.50;1.10;;;23.90;1.00;;;;;;5076618;28;20438;-61
2023/06/19 02:24:28;;;;;;;1.60;1.00;;;23.90;1.00;;;;;;5076270;28;20902;-61
2023/06/19 02:26:55;;;;;;;1.60;1.10;;;23.80;1.00;;;;;;5076866;28;20786;-61
2023/06/19 02:29:23;;;;;;;1.52;1.00;;;23.60;1.00;;;;;;5076909;28;20787;-60
2023/06/19 02:31:50;;;;;;;1.80;1.00;;;23.60;1.00;;;;;;5076400;28;20489;-60
2023/06/19 02:34:17;;;;;;;1.20;1.00;;;23.40;1.00;;;;;;5076824;28;20470;-60
2023/06/19 02:36:47;;;;;;;1.80;1.00;;;23.30;1.00;;;;;;5077078;28;20423;-60
2023/06/19 02:39:14;;;;;;;1.40;1.20;;;23.20;1.00;;;;;;5075946;28;20456;-60
2023/06/19 02:41:43;;;;;;;1.20;1.00;;;23.20;1.00;;;;;;5076864;28;20480;-61
2023/06/19 02:44:10;;;;;;;1.95;0.93;;;23.20;1.00;;;;;;5076486;28;20862;-60
2023/06/19 02:46:38;;;;;;;1.85;1.00;;;23.20;1.00;;;;;;5077348;28;20473;-60
2023/06/19 02:49:05;;;;;;;1.20;1.00;;;23.20;1.00;;;;;;5076247;28;20481;-61
2023/06/19 02:51:32;;;;;;;1.42;1.00;;;23.20;7.50;;;;;;5076177;28;20438;-60
2023/06/19 02:53:59;;;;;;;1.20;1.00;;;23.20;47.50;;;;;;5076212;28;20507;-61
2023/06/19 02:56:28;;;;;;;1.30;1.00;;;23.30;34.30;;;;;;5076650;28;20423;-60
2023/06/19 02:58:55;;;;;;;2.00;0.90;;;23.30;12.00;;;;;;5076111;28;20747;-60
2023/06/19 03:01:22;;;;;;;1.30;1.00;;;23.30;16.10;;;;;;5076425;28;20478;-60
2023/06/19 03:03:52;;;;;;;1.20;0.90;;;23.20;52.60;;;;;;5076322;28;20424;-60
2023/06/19 03:06:19;;;;;;;2.90;1.10;;;23.30;39.70;;;;;;5075976;28;20735;-60
2023/06/19 03:08:47;;;;;;;1.40;0.90;;;23.20;99.90;;;;;;5076026;28;20747;-60
2023/06/19 03:11:14;;;;;;;1.60;1.00;;;23.10;99.90;;;;;;5074633;28;20839;-60
2023/06/19 03:13:46;;;;;;;1.70;0.90;;;23.10;99.90;;;;;;5075583;28;20786;-60
2023/06/19 03:16:14;;;;;;;2.00;0.90;;;23.10;99.90;;;;;;5075903;28;20470;-60
2023/06/19 03:18:41;;;;;;;2.10;0.90;;;23.00;99.90;;;;;;5059786;28;20757;-60
2023/06/19 03:21:09;;;;;;;1.10;0.90;;;23.10;99.90;;;;;;5055819;28;20447;-59
2023/06/19 03:23:36;;;;;;;1.20;0.90;;;23.00;99.90;;;;;;5054894;28;20482;-59
2023/06/19 03:26:03;;;;;;;1.30;0.80;;;22.90;99.90;;;;;;5054639;28;20451;-59
2023/06/19 03:28:30;;;;;;;1.17;0.90;;;22.80;1.00;;;;;;5054385;28;20429;-59
2023/06/19 03:30:57;;;;;;;1.10;0.90;;;22.80;1.00;;;;;;5054384;28;20419;-59
2023/06/19 03:33:24;;;;;;;1.27;0.90;;;22.70;1.00;;;;;;5053120;28;20441;-59
2023/06/19 03:35:51;;;;;;;1.10;0.80;;;22.60;1.00;;;;;;5054419;28;20429;-59
2023/06/19 03:38:19;;;;;;;1.00;0.70;;;22.60;1.00;;;;;;5054741;28;20445;-61
2023/06/19 03:40:46;;;;;;;1.07;0.80;;;22.60;1.00;;;;;;5054889;28;20433;-61
2023/06/19 03:43:13;;;;;;;1.00;0.70;;;22.60;1.00;;;;;;5054311;28;20554;-60
2023/06/19 03:45:40;;;;;;;1.30;0.60;;;22.60;1.00;;;;;;5055281;28;20429;-60
2023/06/19 03:48:07;;;;;;;0.90;0.60;;;22.60;99.90;;;;;;5055163;28;20421;-60
2023/06/19 03:50:34;;;;;;;1.10;0.80;;;22.40;99.90;;;;;;5055148;28;20433;-61
2023/06/19 03:53:01;;;;;;;1.02;0.70;;;22.40;1.00;;;;;;5055160;28;20445;-60
2023/06/19 03:55:29;;;;;;;0.90;0.63;;;22.20;99.90;;;;;;5055529;28;20479;-61
2023/06/19 03:57:56;;;;;;;1.00;0.60;;;22.20;99.90;;;;;;5054598;28;20486;-60
2023/06/19 04:00:23;;;;;;;0.90;0.70;;;22.30;99.90;;;;;;5055144;28;20494;-60
2023/06/19 04:02:50;;;;;;;1.00;0.70;;;22.30;99.90;;;;;;5055611;28;20421;-60
2023/06/19 04:05:17;;;;;;;1.10;0.70;;;22.30;99.90;;;;;;5055221;28;20486;-60
2023/06/19 04:07:44;;;;;;;1.15;0.60;;;22.20;99.90;;;;;;5053560;28;20502;-60
2023/06/19 04:10:12;;;;;;;0.82;0.60;;;22.30;72.30;;;;;;5054640;28;20486;-60
2023/06/19 04:12:41;;;;;;;1.27;0.60;;;22.40;5.00;;;;;;5054171;28;20868;-59
2023/06/19 04:15:08;;;;;;;0.80;0.63;;;22.30;1.00;;;;;;5054201;28;20431;-60
2023/06/19 04:17:35;;;;;;;1.00;0.70;;;22.30;33.70;;;;;;5054391;28;20498;-60
2023/06/19 04:20:06;;;;;;;1.25;0.60;;;22.30;99.90;;;;;;5054769;28;20868;-60
2023/06/19 04:22:33;;;;;;;0.90;0.60;;;22.20;1.00;;;;;;5054813;28;20432;-60
2023/06/19 04:25:00;;;;;;;1.00;0.65;;;22.00;1.00;;;;;;5054009;28;20917;-60
2023/06/19 04:27:27;;;;;;;1.42;0.70;;;22.00;1.00;;;;;;5054420;28;20440;-60
2023/06/19 04:29:55;;;;;;;0.90;0.60;;;21.90;99.90;;;;;;5054636;28;20417;-59
2023/06/19 04:32:22;;;;;;;1.07;0.70;;;21.80;99.90;;;;;;5054113;28;20437;-60
2023/06/19 04:34:49;;;;;;;1.00;0.70;;;21.80;99.90;;;;;;5054258;28;20506;-60
2023/06/19 04:37:19;;;;;;;1.40;0.60;;;21.70;99.90;;;;;;5054060;28;20494;-60
2023/06/19 04:39:46;;;;;;;0.90;0.60;;;21.80;99.90;;;;;;5054615;28;20433;-59
2023/06/19 04:42:19;;;;;;;1.48;0.63;;;21.80;99.90;;;;;;5053806;28;20423;-59
2023/06/19 04:44:46;;;;;;;1.00;0.60;;;21.90;1.00;;;;;;5053040;28;20950;-60
2023/06/19 04:47:15;;;;;;;1.40;0.60;;;21.80;1.00;;;;;;5053117;28;20436;-60
2023/06/19 04:49:42;;;;;;;0.90;0.68;;;21.90;73.00;;;;;;5051484;28;20793;-60
2023/06/19 04:52:09;;;;;;;1.10;0.70;;;21.90;99.90;;;;;;5051266;28;20428;-60
2023/06/19 04:54:36;;;;;;;0.95;0.60;;;22.00;39.90;;;;;;5051472;28;20528;-60
2023/06/19 04:57:03;;;;;;;1.00;0.65;;;22.10;1.00;;;;;;5052043;28;20421;-60
2023/06/19 04:59:31;;;;;;;0.80;0.60;;;22.20;1.00;;;;;;5051951;28;20483;-60
2023/06/19 05:01:58;;;;;;;0.85;0.60;;;22.30;99.90;;;;;;5051026;28;20433;-60
2023/06/19 05:04:26;;;;;;;0.80;0.60;;;22.30;1.00;;;;;;5050476;28;20426;-60
2023/06/19 05:06:53;;;;;;;0.82;0.50;;;22.20;1.00;;;;;;5052652;28;20429;-60
2023/06/19 05:09:20;;;;;;;1.00;0.60;;;22.30;1.00;;;;;;5052620;28;20482;-60
2023/06/19 05:11:47;;;;;;;0.80;0.60;;;22.40;99.90;;;;;;5051665;28;20425;-60
2023/06/19 05:14:15;;;;;;;0.80;0.60;;;22.50;99.90;;;;;;5050578;28;20498;-60
2023/06/19 05:16:42;;;;;;;0.80;0.60;;;22.40;99.90;;;;;;5051269;28;20457;-60
2023/06/19 05:19:09;;;;;;;1.48;0.60;;;22.40;99.90;;;;;;5052241;28;20437;-60
2023/06/19 05:21:37;;;;;;;1.00;0.70;;;22.50;99.90;;;;;;5051594;28;20494;-60
2023/06/19 05:24:05;;;;;;;0.90;0.60;;;22.50;99.90;;;;;;5050685;28;20421;-62
2023/06/19 05:26:32;;;;;;;1.00;0.60;;;22.60;99.90;;;;;;5050945;28;20841;-59
2023/06/19 05:28:58;;;;;;;1.40;0.70;;;22.60;99.90;;;;;;5051511;28;20429;-60
2023/06/19 05:31:28;;;;;;;0.70;0.60;;;22.60;99.90;;;;;;5051560;28;20488;-58
2023/06/19 05:33:55;;;;;;;1.00;0.65;;;22.60;1.00;;;;;;5051040;28;20448;-61
2023/06/19 05:36:22;;;;;;;0.80;0.63;;;22.70;1.00;;;;;;5055181;28;20638;-60
2023/06/19 05:38:50;;;;;;;0.70;0.50;;;22.70;26.20;;;;;;5056133;28;20428;-60
2023/06/19 05:41:17;;;;;;;0.90;0.60;;;22.70;18.90;;;;;;5056066;28;20914;-59
2023/06/19 05:43:44;;;;;;;1.10;0.60;;;22.70;1.00;;;;;;5055150;28;20425;-60
2023/06/19 05:46:11;;;;;;;0.80;0.60;;;22.60;99.90;;;;;;5055055;28;20482;-59
2023/06/19 05:48:38;;;;;;;0.80;0.60;;;22.60;99.90;;;;;;5055656;28;20460;-59
2023/06/19 05:51:05;;;;;;;1.02;0.60;;;22.60;99.90;;;;;;5055965;28;20482;-59
2023/06/19 05:53:32;;;;;;;1.23;0.60;;;22.80;1.00;;;;;;5055567;28;20469;-60
2023/06/19 05:56:01;;;;;;;0.90;0.70;;;22.80;1.00;;;;;;5054320;28;20884;-60
2023/06/19 05:58:28;;;;;;;1.00;0.60;;;22.80;1.00;;;;;;5054996;28;20429;-59
2023/06/19 06:00:57;;;;;;;1.10;0.70;;;22.80;56.30;;;;;;5056249;28;20717;-59
2023/06/19 06:03:24;;;;;;;0.80;0.60;;;22.90;99.90;;;;;;5055190;28;20425;-60
2023/06/19 06:05:51;;;;;;;0.90;0.70;;;23.00;1.00;;;;;;5054220;28;20516;-59
2023/06/19 06:08:19;;;;;;;0.90;0.60;;;23.00;1.00;;;;;;5055912;28;20429;-59
2023/06/19 06:10:46;;;;;;;0.90;0.60;;;23.20;1.00;;;;;;5055837;28;20438;-60
2023/06/19 06:13:14;;;;;;;0.90;0.60;;;23.40;1.00;;;;;;5053626;28;20733;-58
2023/06/19 06:15:41;;;;;;;1.30;0.60;;;23.50;99.90;;;;;;5055580;28;20555;-60
2023/06/19 06:18:08;;;;;;;0.90;0.60;;;23.60;99.90;;;;;;5054116;28;20788;-60
2023/06/19 06:20:35;;;;;;;0.83;0.60;;;23.70;1.00;;;;;;5085714;28;20441;-59
2023/06/19 06:23:03;;;;;;;0.80;0.60;;;23.80;1.00;;;;;;5093995;28;20429;-59
2023/06/19 06:25:30;;;;;;;0.82;0.60;;;23.80;1.00;;;;;;5091852;28;20444;-58
2023/06/19 06:27:57;;;;;;;0.80;0.60;;;23.80;1.00;;;;;;5091566;28;20566;-57
2023/06/19 06:30:27;;;;;;;1.00;0.70;;;23.90;1.00;;;;;;5095070;28;20469;-59
2023/06/19 06:32:54;;;;;;;0.82;0.65;;;23.80;1.00;;;;;;5094434;28;20456;-59
2023/06/19 06:35:21;;;;;;;0.90;0.60;;;23.80;1.00;;;;;;5092458;28;21032;-58
2023/06/19 06:37:49;;;;;;;0.80;0.60;;;23.90;1.00;;;;;;5094426;28;20925;-59
2023/06/19 06:40:17;;;;;;;0.90;0.60;;;24.10;1.00;;;;;;5076032;28;20446;-59
2023/06/19 06:42:44;;;;;;;0.80;0.60;;;24.20;1.00;;;;;;5073529;28;20590;-59
2023/06/19 06:45:11;;;;;;;0.90;0.50;;;24.30;1.00;;;;;;5094097;28;20482;-59
2023/06/19 06:47:40;;;;;;;1.70;0.60;;;24.50;99.90;;;;;;5071508;28;20431;-59
2023/06/19 06:50:09;;;;;;;0.70;0.50;;;24.60;99.90;;;;;;5054819;28;20486;-61
2023/06/19 06:52:36;;;;;;;0.70;0.50;;;24.60;99.90;;;;;;5052791;28;20437;-60
2023/06/19 06:55:03;;;;;;;0.60;0.50;;;24.60;99.90;;;;;;5052356;28;20542;-58
2023/06/19 06:57:30;;;;;;;0.70;0.50;;;24.70;99.90;;;;;;5051299;28;21154;-59
2023/06/19 06:59:57;;;;;;;1.00;0.50;;;24.60;99.90;;;;;;5081979;28;20491;-58
2023/06/19 07:02:24;;;;;;;0.60;0.50;;;24.60;99.90;;;;;;5089620;28;20503;-59
2023/06/19 07:04:53;;;;;;;1.30;0.50;;;24.80;99.90;;;;;;5073923;28;20528;-60
2023/06/19 07:07:20;;;;;;;0.70;0.50;;;24.80;99.90;;;;;;5072880;28;20535;-60
2023/06/19 07:09:47;;;;;;;0.60;0.50;;;24.70;99.90;;;;;;5074736;28;20735;-59
2023/06/19 07:12:15;;;;;;;0.85;0.50;;;24.80;99.90;;;;;;5074476;28;20520;-59
2023/06/19 07:14:42;;;;;;;0.80;0.50;;;24.90;87.30;;;;;;5079910;28;20461;-58
2023/06/19 07:17:09;;;;;;;0.80;0.53;;;24.90;94.70;;;;;;5092627;28;20590;-61
2023/06/19 07:19:36;;;;;;;0.80;0.50;;;24.90;59.30;;;;;;5093015;28;20938;-62
2023/06/19 07:22:04;;;;;;;0.70;0.50;;;25.00;55.90;;;;;;5094146;28;20421;-60
2023/06/19 07:24:32;;;;;;;1.00;0.60;;;25.00;17.80;;;;;;5092993;28;20466;-61
2023/06/19 07:26:59;;;;;;;0.70;0.50;;;24.80;23.40;;;;;;5093727;28;20894;-60
2023/06/19 07:29:26;;;;;;;0.70;0.40;;;24.80;22.10;;;;;;5094720;28;20432;-60
2023/06/19 07:31:56;;;;;;;0.60;0.40;;;24.90;9.30;;;;;;5091486;28;20504;-60
2023/06/19 07:34:23;;;;;;;0.60;0.50;;;25.10;1.00;;;;;;5091672;28;20433;-60
2023/06/19 07:36:50;;;;;;;1.30;0.50;;;25.30;1.00;;;;;;5094528;28;20791;-60
2023/06/19 07:39:18;;;;;;;0.70;0.50;;;25.60;1.00;;;;;;5094071;28;20414;-61
2023/06/19 07:41:46;;;;;;;0.80;0.50;;;25.60;1.00;;;;;;5093499;28;20417;-61
2023/06/19 07:44:13;;;;;;;0.60;0.40;;;25.70;1.00;;;;;;5093150;28;20800;-60
2023/06/19 07:46:40;;;;;;;1.95;0.50;;;26.00;1.00;;;;;;5066519;28;20441;-59
2023/06/19 07:49:07;;;;;;;0.73;0.40;;;26.00;1.00;;;;;;5079286;28;20849;-61
2023/06/19 07:51:34;;;;;;;0.88;0.40;;;26.10;1.00;;;;;;5092691;28;20850;-60
2023/06/19 07:54:01;;;;;;;0.60;0.40;;;26.00;1.00;;;;;;5092129;28;20438;-61
2023/06/19 07:56:29;;;;;;;0.70;0.50;;;26.00;1.00;;;;;;5092167;28;20429;-60
2023/06/19 07:58:56;;;;;;;0.90;0.50;;;26.00;1.00;;;;;;5087153;28;20532;-63
2023/06/19 08:01:23;;;;;;;0.70;0.50;;;25.90;1.00;;;;;;5087363;28;20441;-61
2023/06/19 08:03:50;;;;;;;0.70;0.50;;;25.90;1.00;;;;;;5087281;28;20746;-62
2023/06/19 08:06:17;;;;;;;0.82;0.52;;;26.00;1.00;;;;;;5065737;28;20458;-60
2023/06/19 08:08:44;;;;;;;1.20;0.50;;;26.00;1.00;;;;;;5070057;28;20453;-60
2023/06/19 08:11:11;;;;;;;0.63;0.50;;;25.80;1.00;;;;;;5070658;28;20758;-61
2023/06/19 08:13:39;;;;;;;1.10;0.50;;;25.50;1.00;;;;;;5074364;28;20435;-61
2023/06/19 08:16:07;;;;;;;0.73;0.52;;;25.40;1.00;;;;;;5070765;28;20799;-62
2023/06/19 08:18:34;;;;;;;0.90;0.60;;;25.50;1.00;;;;;;5071678;28;20783;-61
2023/06/19 08:21:01;;;;;;;0.93;0.60;;;25.50;1.00;;;;;;5071068;28;20738;-62
2023/06/19 08:23:28;;;;;;;0.90;0.60;;;25.50;1.00;;;;;;5071340;28;20921;-61
2023/06/19 08:25:55;;;;;;;0.88;0.55;;;25.50;1.00;;;;;;5072756;28;20485;-62
2023/06/19 08:28:23;;;;;;;0.80;0.57;;;25.50;1.00;;;;;;5088113;28;20784;-62
2023/06/19 08:30:51;;;;;;;0.80;0.60;;;25.40;1.00;;;;;;5090988;28;20671;-60
2023/06/19 08:33:18;;;;;;;0.75;0.50;;;25.50;1.00;;;;;;5090440;28;20646;-62
2023/06/19 08:35:46;;;;;;;0.88;0.60;;;25.50;1.00;;;;;;5088850;28;20556;-60
2023/06/19 08:38:13;;;;;;;0.70;0.50;;;25.50;1.00;;;;;;5090674;28;20800;-62
2023/06/19 08:40:40;;;;;;;0.70;0.60;;;25.40;1.00;;;;;;5090484;28;20429;-60
2023/06/19 08:43:07;;;;;;;0.80;0.60;;;25.40;1.00;;;;;;5089561;28;20868;-60
2023/06/19 08:45:34;;;;;;;0.80;0.60;;;25.50;1.00;;;;;;5071592;28;20431;-62
2023/06/19 08:48:03;;;;;;;0.90;0.60;;;25.40;1.00;;;;;;5071761;28;20419;-61
2023/06/19 08:50:30;;;;;;;1.17;0.60;;;25.60;1.00;;;;;;5071820;28;20427;-61
2023/06/19 08:52:57;;;;;;;0.75;0.60;;;25.80;1.00;;;;;;5071512;28;20431;-61
2023/06/19 08:55:24;;;;;;;0.90;0.60;;;26.00;1.00;;;;;;5071476;28;21047;-61
2023/06/19 08:57:52;;;;;;;1.10;0.50;;;26.00;1.00;;;;;;5071015;28;20685;-61
2023/06/19 09:00:25;;;;;;;0.90;0.60;;;25.90;1.00;;;;;;5071516;28;20497;-61
2023/06/19 09:02:53;;;;;;;1.10;0.60;;;26.00;1.00;;;;;;5072327;28;20420;-63
2023/06/19 09:05:22;;;;;;;0.80;0.50;;;26.20;1.00;;;;;;5071557;28;20427;-63
2023/06/19 09:07:57;;;;;;;0.80;0.60;;;26.50;1.00;;;;;;5073083;28;20976;-62
2023/06/19 09:10:24;;;;;;;1.30;0.67;;;26.70;1.00;;;;;;5087353;28;20474;-61
2023/06/19 09:12:59;;;;;;;2.80;0.50;;;26.80;1.00;;;;;;5078153;28;20723;-61
2023/06/19 09:15:29;;;;;;;0.80;0.50;;;26.80;1.00;;;;;;5073463;28;20535;-62
2023/06/19 09:18:06;;;;;;;0.80;0.60;;;26.90;1.00;;;;;;5075304;28;20422;-62
2023/06/19 09:20:38;;;;;;;0.70;0.50;;;26.80;1.00;;;;;;5074728;28;20435;-62
2023/06/19 09:23:06;;;;;;;1.20;0.60;;;27.10;1.00;;;;;;5075271;28;20431;-63
2023/06/19 09:25:33;;;;;;;0.85;0.55;;;27.20;1.00;;;;;;5076032;28;20423;-64
2023/06/19 09:28:00;;;;;;;0.80;0.50;;;27.40;1.00;;;;;;5075287;28;20458;-65
2023/06/19 09:30:27;;;;;;;0.80;0.50;;;27.80;1.00;;;;;;5075092;28;20427;-62
2023/06/19 09:32:54;;;;;;;1.90;0.60;;;28.00;1.00;;;;;;5072833;28;20438;-62
2023/06/19 09:35:21;;;;;;;0.80;0.55;;;28.00;1.00;;;;;;5072732;28;20431;-63
2023/06/19 09:37:52;;;;;;;0.70;0.50;;;28.30;1.00;;;;;;5068521;28;20432;-65
2023/06/19 09:40:20;;;;;;;0.70;0.50;;;28.40;1.00;;;;;;5061531;28;20437;-64
2023/06/19 09:42:48;;;;;;;0.80;0.60;;;28.50;1.00;;;;;;5077900;28;20414;-63
2023/06/19 09:45:18;;;;;;;0.70;0.50;;;28.50;1.00;;;;;;5057790;28;20489;-64
2023/06/19 09:47:47;;;;;;;0.90;0.50;;;28.60;1.00;;;;;;5074206;28;20474;-65
2023/06/19 09:50:16;;;;;;;1.90;0.70;;;28.50;1.00;;;;;;5067004;28;20441;-61
2023/06/19 09:52:44;;;;;;;1.00;0.60;;;28.40;1.00;;;;;;5064504;28;20512;-61
2023/06/19 09:55:14;;;;;;;1.30;0.60;;;28.40;1.00;;;;;;5067024;28;20442;-60
2023/06/19 09:57:44;;;;;;;0.80;0.70;;;28.50;1.00;;;;;;5070208;28;20446;-60
2023/06/19 10:00:15;;;;;;;1.07;0.70;;;28.60;1.00;;;;;;5070803;28;20712;-62
2023/06/19 10:02:43;;;;;;;0.90;0.70;;;28.60;1.00;;;;;;5079011;28;20769;-60
2023/06/19 10:05:12;;;;;;;0.80;0.70;;;28.60;1.00;;;;;;5094129;28;20429;-59
2023/06/19 10:07:42;;;;;;;0.90;0.70;;;28.50;1.00;;;;;;5093889;28;20438;-60
2023/06/19 10:10:12;;;;;;;0.80;0.70;;;28.70;1.00;;;;;;5093692;28;20429;-60
2023/06/19 10:12:42;;;;;;;1.10;0.63;;;28.70;1.00;;;;;;5090771;28;20664;-59
2023/06/19 10:15:16;;;;;;;0.90;0.70;;;28.80;1.00;;;;;;5093592;28;20453;-61
2023/06/19 10:17:49;;;;;;;1.17;0.68;;;28.80;1.00;;;;;;5076326;28;20445;-60
2023/06/19 10:20:31;;;;;;;0.95;0.70;;;29.00;1.00;;;;;;5053388;28;20874;-60
2023/06/19 10:23:04;;;;;;;1.13;0.70;;;29.20;1.00;;;;;;5077122;28;20431;-62
2023/06/19 10:25:33;;;;;;;0.90;0.60;;;29.20;1.00;;;;;;5087344;28;20421;-61
2023/06/19 10:28:02;;;;;;;0.80;0.70;;;29.50;1.00;;;;;;5090739;28;20791;-58
2023/06/19 10:30:30;;;;;;;0.90;0.70;;;29.90;1.00;;;;;;5095536;28;20488;-61
2023/06/19 10:32:57;;;;;;;0.93;0.70;;;30.40;1.00;;;;;;5095134;28;20512;-60
2023/06/19 10:35:25;;;;;;;0.90;0.70;;;30.20;1.00;;;;;;5094750;28;20465;-60
2023/06/19 10:37:52;;;;;;;1.30;0.80;;;29.90;1.00;;;;;;5092822;28;20423;-60
2023/06/19 10:40:19;;;;;;;0.80;0.60;;;29.70;1.00;;;;;;5093253;28;20658;-61
2023/06/19 10:42:47;;;;;;;1.40;0.80;;;29.50;1.00;;;;;;5091797;28;20453;-60
2023/06/19 10:45:20;;;;;;;0.90;0.70;;;29.50;1.00;;;;;;5089471;28;20454;-60
2023/06/19 10:47:47;;;;;;;0.80;0.60;;;29.30;1.00;;;;;;5092397;28;20422;-61
2023/06/19 10:50:15;;;;;;;1.08;0.70;;;29.30;1.00;;;;;;5091734;28;20461;-60
2023/06/19 10:52:44;;;;;;;0.95;0.70;;;29.20;1.00;;;;;;5092486;28;20425;-61
2023/06/19 10:55:12;;;;;;;0.80;0.65;;;29.20;1.00;;;;;;5092104;28;20649;-61
2023/06/19 10:57:41;;;;;;;1.50;0.70;;;29.30;1.00;;;;;;5090999;28;20417;-61
2023/06/19 11:00:12;;;;;;;0.80;0.70;;;29.30;1.00;;;;;;5093042;28;20483;-61
2023/06/19 11:02:43;;;;;;;0.90;0.70;;;29.10;1.00;;;;;;5092821;28;20425;-61
2023/06/19 11:05:11;;;;;;;1.03;0.73;;;29.20;1.00;;;;;;5092384;28;20428;-61
2023/06/19 11:07:38;;;;;;;1.00;0.70;;;29.30;1.00;;;;;;5094576;28;20734;-61
2023/06/19 11:10:06;;;;;;;0.90;0.70;;;29.40;1.00;;;;;;5092886;28;20846;-61
2023/06/19 11:12:34;;;;;;;1.80;0.70;;;29.50;1.00;;;;;;5089741;28;20503;-61
2023/06/19 11:15:05;;;;;;;1.70;0.80;;;29.70;1.00;;;;;;5090067;28;20432;-61
2023/06/19 11:17:33;;;;;;;1.40;0.70;;;30.40;1.00;;;;;;5091321;28;20511;-60
2023/06/19 11:20:01;;;;;;;1.35;0.70;;;31.10;1.00;;;;;;5091753;28;20811;-60
2023/06/19 11:22:40;;;;;;;1.60;0.80;;;31.50;1.00;;;;;;5091103;28;20842;-61
2023/06/19 11:25:08;;;;;;;2.08;0.80;;;32.00;1.00;;;;;;5091126;28;20780;-60
2023/06/19 11:27:39;;;;;;;1.00;0.80;;;32.10;1.00;;;;;;5090137;28;20441;-61
2023/06/19 11:30:07;;;;;;;0.97;0.70;;;32.40;1.00;;;;;;5090562;28;20448;-61
2023/06/19 11:32:40;;;;;;;1.40;0.90;;;32.50;1.00;;;;;;5088798;28;20524;-61
2023/06/19 11:35:11;;;;;;;0.80;0.63;;;31.80;1.00;;;;;;5051390;28;20503;-61
2023/06/19 11:37:40;;;;;;;1.10;0.70;;;31.90;1.00;;;;;;5050205;28;20824;-64
2023/06/19 11:40:15;;;;;;;1.00;0.80;;;31.70;1.00;;;;;;5049500;28;20514;-61
2023/06/19 11:42:49;;;;;;;0.80;0.60;;;31.70;1.00;;;;;;5049951;28;20481;-62
2023/06/19 11:45:17;;;;;;;0.90;0.70;;;31.80;1.00;;;;;;5052257;28;20477;-61
2023/06/19 11:47:46;;;;;;;0.93;0.80;;;32.30;1.00;;;;;;5051045;28;20428;-61
2023/06/19 11:50:15;;;;;;;1.90;0.80;;;32.60;1.00;;;;;;5056827;28;20436;-59
2023/06/19 11:52:43;;;;;;;0.90;0.70;;;32.60;1.00;;;;;;5075318;28;20497;-60
2023/06/19 11:55:10;;;;;;;0.90;0.70;;;32.50;1.00;;;;;;5069610;28;20528;-59
2023/06/19 11:57:37;;;;;;;1.00;0.80;;;32.80;1.00;;;;;;5069711;28;20507;-59
2023/06/19 12:00:08;;;;;;;1.10;0.70;;;32.60;1.00;;;;;;5070447;28;20489;-59
2023/06/19 12:02:35;;;;;;;1.45;0.80;;;32.80;1.00;;;;;;5069608;28;20439;-59
2023/06/19 12:05:02;;;;;;;0.90;0.80;;;32.60;1.00;;;;;;5070635;28;20727;-60
2023/06/19 12:07:31;;;;;;;1.00;0.80;;;32.40;1.00;;;;;;5071146;28;20485;-60
2023/06/19 12:09:58;;;;;;;0.90;0.80;;;31.50;1.00;;;;;;5069666;28;20471;-60
2023/06/19 12:12:25;;;;;;;1.00;0.80;;;31.00;1.00;;;;;;5076673;28;20592;-60
2023/06/19 12:14:52;;;;;;;2.00;0.80;;;31.00;1.00;;;;;;5077940;28;20819;-59
2023/06/19 12:17:19;;;;;;;0.93;0.70;;;31.10;1.00;;;;;;5093372;28;20413;-61
2023/06/19 12:19:48;;;;;;;0.90;0.70;;;31.50;1.00;;;;;;5076330;28;20473;-60
2023/06/19 12:22:15;;;;;;;0.90;0.70;;;31.90;1.00;;;;;;5079659;28;20459;-60
2023/06/19 12:24:43;;;;;;;1.00;0.80;;;32.40;1.00;;;;;;5068104;28;20881;-60
2023/06/19 12:27:10;;;;;;;0.80;0.70;;;32.60;1.00;;;;;;5069325;28;20451;-61
2023/06/19 12:29:37;;;;;;;1.00;0.70;;;32.40;1.00;;;;;;5067326;28;20519;-60
2023/06/19 12:32:05;;;;;;;1.20;0.80;;;32.50;1.00;;;;;;5057993;28;20613;-60
2023/06/19 12:34:32;;;;;;;0.80;0.70;;;32.80;1.00;;;;;;5071331;28;20420;-60
2023/06/19 12:36:59;;;;;;;0.80;0.70;;;32.90;1.00;;;;;;5072335;28;20778;-59
2023/06/19 12:39:27;;;;;;;1.00;0.80;;;33.10;1.00;;;;;;5062442;28;20441;-60
2023/06/19 12:41:55;;;;;;;0.90;0.80;;;33.40;1.00;;;;;;5058716;28;20488;-59
2023/06/19 12:44:24;;;;;;;1.10;0.80;;;33.30;1.00;;;;;;5073479;28;20477;-59
2023/06/19 12:46:52;;;;;;;1.50;0.80;;;32.90;1.00;;;;;;5076602;28;20434;-60
2023/06/19 12:49:19;;;;;;;0.80;0.70;;;32.30;1.00;;;;;;5074489;28;20874;-61
2023/06/19 12:51:48;;;;;;;0.90;0.70;;;32.00;1.00;;;;;;5073712;28;20709;-60
2023/06/19 12:54:15;;;;;;;0.90;0.80;;;31.80;1.00;;;;;;5076013;28;20489;-61
2023/06/19 12:56:43;;;;;;;1.30;0.70;;;31.20;1.00;;;;;;5075427;28;20830;-61
2023/06/19 12:59:11;;;;;;;1.20;0.70;;;30.90;1.00;;;;;;5075573;28;20843;-61